AFR255 LFML-LFKJ
Flight info
| Callsign | AFR255 |
|---|---|
| Flight time | 0h 38m |
| Altitude | 23000 |
| Route | TINOT Z154 RUBAS |
| Aircraft | A320/M-SDE3FGHIRWY/LB1 |
Departure
| Time | 2026-05-04 16:04 |
|---|---|
| Airport | Marseille Provence Airport (LFML) |
Arrival
| Time | 2026-05-04 16:42 |
|---|---|
| Airport | Ajaccio Napoléon Bonaparte airport (LFKJ) |
| Time | Latitude | Longitude | Altitude | Speed | Heading |
|---|---|---|---|---|---|
| 2026-05-04 15:40 | 43.43980 | 5.22197 | 37 ft | 0 kts | 59° |
| 2026-05-04 15:54 | 43.43975 | 5.22186 | 37 ft | 4 kts | 59° |
| 2026-05-04 15:54 | 43.43963 | 5.22157 | 37 ft | 3 kts | 59° |
| 2026-05-04 15:54 | 43.43947 | 5.22132 | 36 ft | 4 kts | 20° |
| 2026-05-04 15:55 | 43.43925 | 5.22132 | 36 ft | 4 kts | 319° |
| 2026-05-04 15:55 | 43.43921 | 5.22136 | 35 ft | 0 kts | 314° |
| 2026-05-04 15:57 | 43.43958 | 5.22084 | 37 ft | 10 kts | 314° |
| 2026-05-04 15:57 | 43.43999 | 5.22017 | 37 ft | 8 kts | 288° |
| 2026-05-04 15:57 | 43.43977 | 5.21960 | 36 ft | 6 kts | 229° |
| 2026-05-04 15:57 | 43.43922 | 5.21890 | 37 ft | 12 kts | 220° |
| 2026-05-04 15:58 | 43.43915 | 5.21802 | 37 ft | 14 kts | 305° |
| 2026-05-04 15:58 | 43.43976 | 5.21662 | 37 ft | 16 kts | 260° |
| 2026-05-04 15:58 | 43.43925 | 5.21546 | 37 ft | 13 kts | 253° |
| 2026-05-04 15:58 | 43.43967 | 5.21424 | 37 ft | 20 kts | 313° |
| 2026-05-04 15:59 | 43.44063 | 5.21286 | 37 ft | 19 kts | 314° |
| 2026-05-04 15:59 | 43.44152 | 5.21160 | 37 ft | 18 kts | 314° |
| 2026-05-04 15:59 | 43.44235 | 5.21038 | 37 ft | 17 kts | 313° |
| 2026-05-04 15:59 | 43.44248 | 5.21020 | 37 ft | 17 kts | 313° |
| 2026-05-04 16:00 | 43.44273 | 5.20967 | 37 ft | 16 kts | 299° |
| 2026-05-04 16:00 | 43.44350 | 5.20806 | 37 ft | 22 kts | 310° |
| 2026-05-04 16:00 | 43.44451 | 5.20661 | 37 ft | 20 kts | 315° |
| 2026-05-04 16:01 | 43.44544 | 5.20528 | 37 ft | 19 kts | 314° |
| 2026-05-04 16:01 | 43.44631 | 5.20405 | 37 ft | 17 kts | 314° |
| 2026-05-04 16:01 | 43.44711 | 5.20290 | 37 ft | 16 kts | 314° |
| 2026-05-04 16:01 | 43.44784 | 5.20185 | 37 ft | 14 kts | 314° |
| 2026-05-04 16:02 | 43.44857 | 5.20083 | 37 ft | 19 kts | 315° |
| 2026-05-04 16:02 | 43.44950 | 5.19950 | 37 ft | 18 kts | 309° |
| 2026-05-04 16:02 | 43.44873 | 5.19791 | 34 ft | 10 kts | 141° |
| 2026-05-04 16:03 | 43.44846 | 5.19832 | 35 ft | 0 kts | 133° |
| 2026-05-04 16:03 | 43.44836 | 5.19847 | 35 ft | 20 kts | 133° |
| 2026-05-04 16:03 | 43.44527 | 5.20296 | 37 ft | 106 kts | 133° |
| 2026-05-04 16:04 | 43.43874 | 5.21214 | 122 ft | 161 kts | 135° |
| 2026-05-04 16:04 | 43.42198 | 5.23376 | 1891 ft | 176 kts | 143° |
| 2026-05-04 16:04 | 43.41095 | 5.24280 | 2424 ft | 194 kts | 148° |
| 2026-05-04 16:05 | 43.39855 | 5.25262 | 2894 ft | 218 kts | 147° |
| 2026-05-04 16:05 | 43.38508 | 5.26403 | 3478 ft | 235 kts | 147° |
| 2026-05-04 16:05 | 43.35697 | 5.28897 | 5248 ft | 246 kts | 148° |
| 2026-05-04 16:06 | 43.34249 | 5.30193 | 6101 ft | 251 kts | 148° |
| 2026-05-04 16:06 | 43.30012 | 5.33297 | 8070 ft | 268 kts | 175° |
| 2026-05-04 16:07 | 43.27558 | 5.33092 | 9302 ft | 267 kts | 185° |
| 2026-05-04 16:07 | 43.21624 | 5.32965 | 10691 ft | 316 kts | 181° |
| 2026-05-04 16:08 | 43.19358 | 5.33021 | 10991 ft | 334 kts | 181° |
| 2026-05-04 16:08 | 43.12193 | 5.33244 | 12927 ft | 350 kts | 181° |
| 2026-05-04 16:09 | 43.07260 | 5.33372 | 14154 ft | 360 kts | 181° |
| 2026-05-04 16:09 | 43.02198 | 5.33480 | 15349 ft | 367 kts | 181° |
| 2026-05-04 16:10 | 42.97049 | 5.33387 | 16531 ft | 373 kts | 184° |
| 2026-05-04 16:11 | 42.89202 | 5.32775 | 18269 ft | 380 kts | 185° |
| 2026-05-04 16:11 | 42.86545 | 5.32571 | 18748 ft | 384 kts | 185° |
| 2026-05-04 16:12 | 42.78442 | 5.32040 | 20141 ft | 393 kts | 185° |
| 2026-05-04 16:12 | 42.70571 | 5.35090 | 21473 ft | 417 kts | 143° |
| 2026-05-04 16:13 | 42.67239 | 5.41637 | 22329 ft | 437 kts | 112° |
| 2026-05-04 16:13 | 42.65266 | 5.49516 | 22961 ft | 443 kts | 112° |
| 2026-05-04 16:14 | 42.63229 | 5.57621 | 22990 ft | 461 kts | 112° |
| 2026-05-04 16:14 | 42.61140 | 5.65897 | 22992 ft | 464 kts | 112° |
| 2026-05-04 16:15 | 42.57997 | 5.78323 | 22990 ft | 463 kts | 112° |
| 2026-05-04 16:16 | 42.55900 | 5.86576 | 22995 ft | 462 kts | 112° |
| 2026-05-04 16:16 | 42.52750 | 5.98872 | 22994 ft | 462 kts | 112° |
| 2026-05-04 16:17 | 42.50637 | 6.07094 | 22990 ft | 461 kts | 112° |
| 2026-05-04 16:18 | 42.47469 | 6.19395 | 22984 ft | 461 kts | 112° |
| 2026-05-04 16:18 | 42.46406 | 6.23503 | 22986 ft | 461 kts | 112° |
| 2026-05-04 16:19 | 42.43209 | 6.35797 | 22991 ft | 462 kts | 112° |
| 2026-05-04 16:19 | 42.41074 | 6.44001 | 23010 ft | 462 kts | 112° |
| 2026-05-04 16:20 | 42.37853 | 6.56281 | 22998 ft | 461 kts | 112° |
| 2026-05-04 16:20 | 42.35700 | 6.64446 | 23000 ft | 461 kts | 112° |
| 2026-05-04 16:21 | 42.32478 | 6.76667 | 23006 ft | 462 kts | 112° |
| 2026-05-04 16:22 | 42.30314 | 6.84824 | 22991 ft | 461 kts | 112° |
| 2026-05-04 16:22 | 42.27052 | 6.97046 | 22993 ft | 461 kts | 113° |
| 2026-05-04 16:23 | 42.23778 | 7.09290 | 23001 ft | 462 kts | 113° |
| 2026-05-04 16:24 | 42.19400 | 7.25558 | 23001 ft | 462 kts | 113° |
| 2026-05-04 16:25 | 42.17199 | 7.33695 | 23019 ft | 462 kts | 113° |
| 2026-05-04 16:26 | 42.12767 | 7.49977 | 22886 ft | 464 kts | 113° |
| 2026-05-04 16:26 | 42.09822 | 7.60723 | 20905 ft | 454 kts | 113° |
| 2026-05-04 16:27 | 42.07654 | 7.68621 | 19493 ft | 447 kts | 113° |
| 2026-05-04 16:28 | 42.04107 | 7.81487 | 17266 ft | 433 kts | 113° |
| 2026-05-04 16:28 | 42.01357 | 7.91413 | 15734 ft | 418 kts | 113° |
| 2026-05-04 16:29 | 41.96386 | 8.04917 | 13498 ft | 392 kts | 136° |
| 2026-05-04 16:30 | 41.90025 | 8.11433 | 11763 ft | 378 kts | 164° |
| 2026-05-04 16:31 | 41.85344 | 8.14499 | 10640 ft | 377 kts | 143° |
| 2026-05-04 16:31 | 41.80015 | 8.22052 | 8911 ft | 365 kts | 135° |
| 2026-05-04 16:32 | 41.74679 | 8.28972 | 7192 ft | 348 kts | 141° |
| 2026-05-04 16:33 | 41.71070 | 8.33178 | 6068 ft | 339 kts | 141° |
| 2026-05-04 16:33 | 41.67558 | 8.37259 | 4912 ft | 330 kts | 141° |
| 2026-05-04 16:34 | 41.64426 | 8.41641 | 3751 ft | 328 kts | 123° |
| 2026-05-04 16:34 | 41.63349 | 8.44267 | 3205 ft | 324 kts | 121° |
| 2026-05-04 16:35 | 41.62039 | 8.52093 | 3015 ft | 274 kts | 68° |
| 2026-05-04 16:35 | 41.65794 | 8.57588 | 3016 ft | 251 kts | 47° |
| 2026-05-04 16:36 | 41.67014 | 8.59149 | 3018 ft | 236 kts | 47° |
| 2026-05-04 16:36 | 41.69202 | 8.62257 | 3023 ft | 226 kts | 57° |
| 2026-05-04 16:37 | 41.70978 | 8.65723 | 3031 ft | 222 kts | 60° |
| 2026-05-04 16:37 | 41.71934 | 8.67268 | 3026 ft | 213 kts | 44° |
| 2026-05-04 16:37 | 41.74489 | 8.69098 | 3034 ft | 211 kts | 28° |
| 2026-05-04 16:38 | 41.77144 | 8.70753 | 3036 ft | 211 kts | 28° |
| 2026-05-04 16:39 | 41.80993 | 8.73151 | 2269 ft | 186 kts | 28° |
| 2026-05-04 16:39 | 41.83205 | 8.74526 | 1810 ft | 167 kts | 27° |
| 2026-05-04 16:40 | 41.85146 | 8.75732 | 1387 ft | 145 kts | 27° |
| 2026-05-04 16:40 | 41.86945 | 8.76852 | 1005 ft | 141 kts | 25° |
| 2026-05-04 16:41 | 41.88723 | 8.77972 | 641 ft | 140 kts | 26° |
| 2026-05-04 16:41 | 41.91352 | 8.79596 | 40 ft | 135 kts | 26° |
| 2026-05-04 16:42 | 41.92396 | 8.80107 | 22 ft | 13 kts | 275° |
| 2026-05-04 16:43 | 41.92397 | 8.79940 | 26 ft | 11 kts | 251° |
| 2026-05-04 16:43 | 41.92226 | 8.79816 | 27 ft | 11 kts | 210° |
| 2026-05-04 16:43 | 41.92164 | 8.79772 | 26 ft | 9 kts | 206° |
| 2026-05-04 16:44 | 41.91984 | 8.79655 | 29 ft | 5 kts | 244° |
| 2026-05-04 16:45 | 41.92005 | 8.79615 | 28 ft | 2 kts | 341° |
| 2026-05-04 16:46 | 41.92010 | 8.79613 | 31 ft | 0 kts | 342° |